sensor_id;sensor_type;location;lat;lon;timestamp;pressure;altitude;pressure_sealevel;temperature;humidity
5872;BME280;2962;51.312;7.378;2023-07-22T00:00:48;97319.06;;;11.30;100.00
5872;BME280;2962;51.312;7.378;2023-07-22T00:03:13;97320.16;;;11.25;100.00
5872;BME280;2962;51.312;7.378;2023-07-22T00:05:39;97327.94;;;11.23;100.00
5872;BME280;2962;51.312;7.378;2023-07-22T00:08:05;97320.44;;;11.13;100.00
5872;BME280;2962;51.312;7.378;2023-07-22T00:10:30;97307.03;;;10.97;100.00
5872;BME280;2962;51.312;7.378;2023-07-22T00:12:55;97303.84;;;10.88;100.00
5872;BME280;2962;51.312;7.378;2023-07-22T00:15:21;97304.94;;;10.84;100.00
5872;BME280;2962;51.312;7.378;2023-07-22T00:17:47;97297.28;;;10.59;100.00
5872;BME280;2962;51.312;7.378;2023-07-22T00:20:13;97308.88;;;10.52;100.00
5872;BME280;2962;51.312;7.378;2023-07-22T00:22:39;97304.66;;;10.59;100.00
5872;BME280;2962;51.312;7.378;2023-07-22T00:25:06;97299.53;;;10.50;100.00
5872;BME280;2962;51.312;7.378;2023-07-22T00:27:32;97310.31;;;10.43;100.00
5872;BME280;2962;51.312;7.378;2023-07-22T00:29:57;97313.72;;;10.66;100.00
5872;BME280;2962;51.312;7.378;2023-07-22T00:32:23;97305.88;;;10.61;100.00
5872;BME280;2962;51.312;7.378;2023-07-22T00:34:48;97301.91;;;10.55;100.00
5872;BME280;2962;51.312;7.378;2023-07-22T00:37:13;97318.28;;;10.59;100.00
5872;BME280;2962;51.312;7.378;2023-07-22T00:39:38;97308.09;;;10.52;100.00
5872;BME280;2962;51.312;7.378;2023-07-22T00:42:04;97299.03;;;10.44;100.00
5872;BME280;2962;51.312;7.378;2023-07-22T00:44:29;97308.03;;;10.48;100.00
5872;BME280;2962;51.312;7.378;2023-07-22T00:46:56;97315.81;;;10.46;100.00
5872;BME280;2962;51.312;7.378;2023-07-22T00:49:23;97304.81;;;10.39;100.00
5872;BME280;2962;51.312;7.378;2023-07-22T00:51:49;97305.69;;;10.47;100.00
5872;BME280;2962;51.312;7.378;2023-07-22T00:54:14;97299.09;;;10.48;100.00
5872;BME280;2962;51.312;7.378;2023-07-22T00:56:40;97303.41;;;10.52;100.00
5872;BME280;2962;51.312;7.378;2023-07-22T00:59:07;97319.16;;;10.66;100.00
5872;BME280;2962;51.312;7.378;2023-07-22T01:01:32;97314.28;;;10.83;100.00
5872;BME280;2962;51.312;7.378;2023-07-22T01:03:57;97304.13;;;10.80;100.00
5872;BME280;2962;51.312;7.378;2023-07-22T01:06:23;97306.56;;;10.88;100.00
5872;BME280;2962;51.312;7.378;2023-07-22T01:08:49;97298.66;;;10.80;100.00
5872;BME280;2962;51.312;7.378;2023-07-22T01:11:15;97292.97;;;10.92;100.00
5872;BME280;2962;51.312;7.378;2023-07-22T01:13:40;97289.94;;;11.00;100.00
5872;BME280;2962;51.312;7.378;2023-07-22T01:16:06;97284.75;;;10.88;100.00
5872;BME280;2962;51.312;7.378;2023-07-22T01:18:33;97291.09;;;10.99;100.00
5872;BME280;2962;51.312;7.378;2023-07-22T01:20:58;97292.22;;;10.95;100.00
5872;BME280;2962;51.312;7.378;2023-07-22T01:23:24;97293.75;;;10.92;100.00
5872;BME280;2962;51.312;7.378;2023-07-22T01:25:50;97285.84;;;10.84;100.00
5872;BME280;2962;51.312;7.378;2023-07-22T01:28:15;97267.88;;;10.75;100.00
5872;BME280;2962;51.312;7.378;2023-07-22T01:30:40;97291.31;;;10.80;100.00
5872;BME280;2962;51.312;7.378;2023-07-22T01:33:06;97285.44;;;10.78;100.00
5872;BME280;2962;51.312;7.378;2023-07-22T01:35:31;97283.41;;;10.71;100.00
5872;BME280;2962;51.312;7.378;2023-07-22T01:37:56;97281.75;;;10.63;100.00
5872;BME280;2962;51.312;7.378;2023-07-22T01:40:21;97286.13;;;10.71;100.00
5872;BME280;2962;51.312;7.378;2023-07-22T01:42:48;97293.16;;;10.72;100.00
5872;BME280;2962;51.312;7.378;2023-07-22T01:45:14;97275.56;;;10.66;100.00
5872;BME280;2962;51.312;7.378;2023-07-22T01:47:39;97275.50;;;10.59;100.00
5872;BME280;2962;51.312;7.378;2023-07-22T01:50:06;97285.25;;;10.64;100.00
5872;BME280;2962;51.312;7.378;2023-07-22T01:52:31;97273.19;;;10.61;100.00
5872;BME280;2962;51.312;7.378;2023-07-22T01:54:57;97291.88;;;10.63;100.00
5872;BME280;2962;51.312;7.378;2023-07-22T01:57:22;97268.38;;;10.51;100.00
5872;BME280;2962;51.312;7.378;2023-07-22T01:59:47;97269.94;;;10.52;100.00
5872;BME280;2962;51.312;7.378;2023-07-22T02:02:13;97287.06;;;10.52;100.00
5872;BME280;2962;51.312;7.378;2023-07-22T02:04:38;97276.56;;;10.51;100.00
5872;BME280;2962;51.312;7.378;2023-07-22T02:07:03;97284.00;;;10.54;100.00
5872;BME280;2962;51.312;7.378;2023-07-22T02:09:29;97276.59;;;10.55;100.00
5872;BME280;2962;51.312;7.378;2023-07-22T02:11:54;97279.78;;;10.60;100.00
5872;BME280;2962;51.312;7.378;2023-07-22T02:14:19;97275.88;;;10.58;100.00
5872;BME280;2962;51.312;7.378;2023-07-22T02:16:45;97281.03;;;10.66;100.00
5872;BME280;2962;51.312;7.378;2023-07-22T02:19:10;97265.31;;;10.56;100.00
5872;BME280;2962;51.312;7.378;2023-07-22T02:21:35;97277.13;;;10.67;100.00
5872;BME280;2962;51.312;7.378;2023-07-22T02:24:00;97277.91;;;10.68;100.00
5872;BME280;2962;51.312;7.378;2023-07-22T02:26:26;97277.56;;;10.69;100.00
5872;BME280;2962;51.312;7.378;2023-07-22T02:28:51;97279.16;;;10.74;100.00
5872;BME280;2962;51.312;7.378;2023-07-22T02:31:16;97274.09;;;10.72;100.00
5872;BME280;2962;51.312;7.378;2023-07-22T02:33:42;97270.13;;;10.66;100.00
5872;BME280;2962;51.312;7.378;2023-07-22T02:36:07;97270.50;;;10.65;100.00
5872;BME280;2962;51.312;7.378;2023-07-22T02:38:32;97275.59;;;10.70;100.00
5872;BME280;2962;51.312;7.378;2023-07-22T02:41:02;97276.44;;;10.74;100.00
5872;BME280;2962;51.312;7.378;2023-07-22T02:43:28;97279.53;;;10.72;100.00
5872;BME280;2962;51.312;7.378;2023-07-22T02:45:54;97288.94;;;10.79;100.00
5872;BME280;2962;51.312;7.378;2023-07-22T02:48:20;97285.81;;;10.77;100.00
5872;BME280;2962;51.312;7.378;2023-07-22T02:50:46;97272.50;;;10.71;100.00
5872;BME280;2962;51.312;7.378;2023-07-22T02:53:11;97283.91;;;10.81;100.00
5872;BME280;2962;51.312;7.378;2023-07-22T02:55:37;97283.88;;;10.77;100.00
5872;BME280;2962;51.312;7.378;2023-07-22T02:58:02;97271.72;;;10.71;100.00
5872;BME280;2962;51.312;7.378;2023-07-22T03:00:28;97279.91;;;10.71;100.00
5872;BME280;2962;51.312;7.378;2023-07-22T03:02:56;97283.41;;;10.71;100.00
5872;BME280;2962;51.312;7.378;2023-07-22T03:05:26;97292.41;;;10.75;100.00
5872;BME280;2962;51.312;7.378;2023-07-22T03:07:53;97277.50;;;10.66;100.00
5872;BME280;2962;51.312;7.378;2023-07-22T03:10:18;97288.06;;;10.71;100.00
5872;BME280;2962;51.312;7.378;2023-07-22T03:12:43;97290.75;;;10.67;100.00
5872;BME280;2962;51.312;7.378;2023-07-22T03:15:09;97281.31;;;10.58;100.00
5872;BME280;2962;51.312;7.378;2023-07-22T03:17:38;97295.41;;;10.67;100.00
5872;BME280;2962;51.312;7.378;2023-07-22T03:20:07;97297.38;;;10.66;100.00
5872;BME280;2962;51.312;7.378;2023-07-22T03:22:39;97286.59;;;10.77;100.00
5872;BME280;2962;51.312;7.378;2023-07-22T03:25:05;97289.59;;;10.68;100.00
5872;BME280;2962;51.312;7.378;2023-07-22T03:27:33;97286.44;;;10.63;100.00
5872;BME280;2962;51.312;7.378;2023-07-22T03:29:58;97272.38;;;10.57;100.00
5872;BME280;2962;51.312;7.378;2023-07-22T03:32:24;97271.50;;;10.53;100.00
5872;BME280;2962;51.312;7.378;2023-07-22T03:34:49;97292.31;;;10.65;100.00
5872;BME280;2962;51.312;7.378;2023-07-22T03:37:15;97288.44;;;10.69;100.00
5872;BME280;2962;51.312;7.378;2023-07-22T03:39:40;97281.75;;;10.63;100.00
5872;BME280;2962;51.312;7.378;2023-07-22T03:42:05;97279.03;;;10.63;100.00
5872;BME280;2962;51.312;7.378;2023-07-22T03:44:31;97288.81;;;10.68;100.00
5872;BME280;2962;51.312;7.378;2023-07-22T03:46:56;97287.25;;;10.67;100.00
5872;BME280;2962;51.312;7.378;2023-07-22T03:49:21;97282.53;;;10.64;100.00
5872;BME280;2962;51.312;7.378;2023-07-22T03:51:47;97288.81;;;10.68;100.00
5872;BME280;2962;51.312;7.378;2023-07-22T03:54:12;97278.34;;;10.70;100.00
5872;BME280;2962;51.312;7.378;2023-07-22T03:56:40;97280.34;;;10.77;100.00
5872;BME280;2962;51.312;7.378;2023-07-22T03:59:06;97289.88;;;10.93;100.00
5872;BME280;2962;51.312;7.378;2023-07-22T04:01:31;97285.94;;;10.91;100.00
5872;BME280;2962;51.312;7.378;2023-07-22T04:03:57;97291.81;;;10.93;100.00
5872;BME280;2962;51.312;7.378;2023-07-22T04:06:22;97290.25;;;10.92;100.00
5872;BME280;2962;51.312;7.378;2023-07-22T04:08:47;97284.38;;;10.90;100.00
5872;BME280;2962;51.312;7.378;2023-07-22T04:11:12;97295.28;;;10.90;100.00
5872;BME280;2962;51.312;7.378;2023-07-22T04:13:39;97286.75;;;10.95;100.00
5872;BME280;2962;51.312;7.378;2023-07-22T04:16:04;97290.59;;;10.90;100.00
5872;BME280;2962;51.312;7.378;2023-07-22T04:18:30;97292.16;;;10.88;100.00
5872;BME280;2962;51.312;7.378;2023-07-22T04:21:00;97287.84;;;10.87;100.00
5872;BME280;2962;51.312;7.378;2023-07-22T04:23:25;97274.09;;;10.76;100.00
5872;BME280;2962;51.312;7.378;2023-07-22T04:25:51;97288.66;;;10.91;100.00
5872;BME280;2962;51.312;7.378;2023-07-22T04:28:17;97285.13;;;10.87;100.00
5872;BME280;2962;51.312;7.378;2023-07-22T04:30:42;97296.09;;;10.94;100.00
5872;BME280;2962;51.312;7.378;2023-07-22T04:33:08;97276.13;;;10.83;100.00
5872;BME280;2962;51.312;7.378;2023-07-22T04:35:40;97285.13;;;10.87;100.00
5872;BME280;2962;51.312;7.378;2023-07-22T04:38:06;97286.34;;;10.93;100.00
5872;BME280;2962;51.312;7.378;2023-07-22T04:40:31;97299.25;;;10.96;100.00
5872;BME280;2962;51.312;7.378;2023-07-22T04:42:57;97292.25;;;10.98;100.00
5872;BME280;2962;51.312;7.378;2023-07-22T04:45:22;97299.63;;;10.98;100.00
5872;BME280;2962;51.312;7.378;2023-07-22T04:47:51;97296.59;;;11.03;100.00
5872;BME280;2962;51.312;7.378;2023-07-22T04:50:16;97303.22;;;11.06;100.00
5872;BME280;2962;51.312;7.378;2023-07-22T04:52:46;97292.34;;;11.09;100.00
5872;BME280;2962;51.312;7.378;2023-07-22T04:55:12;97280.28;;;11.10;100.00
5872;BME280;2962;51.312;7.378;2023-07-22T04:57:39;97296.81;;;11.28;100.00
5872;BME280;2962;51.312;7.378;2023-07-22T05:00:06;97299.63;;;11.39;100.00
5872;BME280;2962;51.312;7.378;2023-07-22T05:02:34;97300.50;;;11.50;100.00
5872;BME280;2962;51.312;7.378;2023-07-22T05:04:59;97290.47;;;11.61;100.00
5872;BME280;2962;51.312;7.378;2023-07-22T05:07:25;97294.88;;;11.77;100.00
5872;BME280;2962;51.312;7.378;2023-07-22T05:09:50;97291.28;;;11.65;100.00
5872;BME280;2962;51.312;7.378;2023-07-22T05:12:17;97286.69;;;11.77;100.00
5872;BME280;2962;51.312;7.378;2023-07-22T05:14:42;97292.47;;;11.71;100.00
5872;BME280;2962;51.312;7.378;2023-07-22T05:17:08;97288.22;;;11.74;100.00
5872;BME280;2962;51.312;7.378;2023-07-22T05:19:33;97300.44;;;11.91;100.00
5872;BME280;2962;51.312;7.378;2023-07-22T05:21:58;97287.31;;;12.11;100.00
5872;BME280;2962;51.312;7.378;2023-07-22T05:24:23;97294.34;;;12.15;100.00
5872;BME280;2962;51.312;7.378;2023-07-22T05:26:49;97294.81;;;12.28;100.00
5872;BME280;2962;51.312;7.378;2023-07-22T05:29:14;97287.69;;;12.13;100.00
5872;BME280;2962;51.312;7.378;2023-07-22T05:31:39;97298.38;;;12.39;100.00
5872;BME280;2962;51.312;7.378;2023-07-22T05:34:05;97286.16;;;12.15;100.00
5872;BME280;2962;51.312;7.378;2023-07-22T05:36:30;97287.28;;;12.07;100.00
5872;BME280;2962;51.312;7.378;2023-07-22T05:38:57;97289.34;;;12.32;100.00
5872;BME280;2962;51.312;7.378;2023-07-22T05:41:22;97288.13;;;12.22;100.00
5872;BME280;2962;51.312;7.378;2023-07-22T05:43:47;97308.44;;;12.25;100.00
5872;BME280;2962;51.312;7.378;2023-07-22T05:46:12;97310.78;;;12.23;100.00
5872;BME280;2962;51.312;7.378;2023-07-22T05:48:38;97302.94;;;12.17;100.00
5872;BME280;2962;51.312;7.378;2023-07-22T05:51:03;97305.31;;;12.23;100.00
5872;BME280;2962;51.312;7.378;2023-07-22T05:53:28;97305.31;;;12.23;100.00
5872;BME280;2962;51.312;7.378;2023-07-22T05:55:54;97301.03;;;12.29;100.00
5872;BME280;2962;51.312;7.378;2023-07-22T05:58:19;97301.47;;;12.34;100.00
5872;BME280;2962;51.312;7.378;2023-07-22T06:00:44;97301.13;;;12.46;100.00
5872;BME280;2962;51.312;7.378;2023-07-22T06:03:10;97298.09;;;12.66;100.00
5872;BME280;2962;51.312;7.378;2023-07-22T06:05:36;97296.94;;;12.74;100.00
5872;BME280;2962;51.312;7.378;2023-07-22T06:08:01;97301.28;;;12.86;100.00
5872;BME280;2962;51.312;7.378;2023-07-22T06:10:26;97307.91;;;12.81;100.00
5872;BME280;2962;51.312;7.378;2023-07-22T06:12:52;97304.41;;;12.88;100.00
5872;BME280;2962;51.312;7.378;2023-07-22T06:15:17;97298.94;;;12.95;100.00
5872;BME280;2962;51.312;7.378;2023-07-22T06:17:42;97300.13;;;12.98;100.00
5872;BME280;2962;51.312;7.378;2023-07-22T06:20:08;97292.31;;;12.96;100.00
5872;BME280;2962;51.312;7.378;2023-07-22T06:22:34;97298.97;;;13.09;100.00
5872;BME280;2962;51.312;7.378;2023-07-22T06:24:59;97287.31;;;13.27;100.00
5872;BME280;2962;51.312;7.378;2023-07-22T06:27:24;97297.44;;;13.15;100.00
5872;BME280;2962;51.312;7.378;2023-07-22T06:29:50;97301.78;;;13.45;100.00
5872;BME280;2962;51.312;7.378;2023-07-22T06:32:15;97299.06;;;13.41;100.00
5872;BME280;2962;51.312;7.378;2023-07-22T06:34:40;97296.72;;;13.61;100.00
5872;BME280;2962;51.312;7.378;2023-07-22T06:37:05;97298.63;;;13.79;100.00
5872;BME280;2962;51.312;7.378;2023-07-22T06:39:31;97298.63;;;13.89;100.00
5872;BME280;2962;51.312;7.378;2023-07-22T06:41:56;97313.88;;;13.98;100.00
5872;BME280;2962;51.312;7.378;2023-07-22T06:44:21;97307.63;;;13.93;100.00
5872;BME280;2962;51.312;7.378;2023-07-22T06:46:47;97305.25;;;14.06;100.00
5872;BME280;2962;51.312;7.378;2023-07-22T06:49:12;97304.84;;;14.15;100.00
5872;BME280;2962;51.312;7.378;2023-07-22T06:51:37;97306.41;;;14.20;100.00
5872;BME280;2962;51.312;7.378;2023-07-22T06:54:03;97295.78;;;14.36;100.00
5872;BME280;2962;51.312;7.378;2023-07-22T06:56:28;97300.53;;;14.17;100.00
5872;BME280;2962;51.312;7.378;2023-07-22T06:58:53;97283.69;;;14.30;100.00
5872;BME280;2962;51.312;7.378;2023-07-22T07:01:19;97289.53;;;14.35;100.00
5872;BME280;2962;51.312;7.378;2023-07-22T07:03:44;97280.88;;;14.51;100.00
5872;BME280;2962;51.312;7.378;2023-07-22T07:06:10;97296.06;;;14.74;100.00
5872;BME280;2962;51.312;7.378;2023-07-22T07:08:35;97297.59;;;14.78;100.00
5872;BME280;2962;51.312;7.378;2023-07-22T07:11:02;97297.13;;;14.90;100.00
5872;BME280;2962;51.312;7.378;2023-07-22T07:13:27;97301.03;;;14.97;100.00
5872;BME280;2962;51.312;7.378;2023-07-22T07:15:54;97300.88;;;15.22;100.00
5872;BME280;2962;51.312;7.378;2023-07-22T07:18:19;97298.88;;;15.26;100.00
5872;BME280;2962;51.312;7.378;2023-07-22T07:20:45;97295.50;;;15.59;100.00
5872;BME280;2962;51.312;7.378;2023-07-22T07:23:10;97298.63;;;15.61;100.00
5872;BME280;2962;51.312;7.378;2023-07-22T07:25:36;97297.09;;;15.57;100.00
5872;BME280;2962;51.312;7.378;2023-07-22T07:28:01;97306.31;;;15.29;100.00
5872;BME280;2962;51.312;7.378;2023-07-22T07:30:26;97285.22;;;15.19;100.00
5872;BME280;2962;51.312;7.378;2023-07-22T07:32:52;97287.50;;;15.27;100.00
5872;BME280;2962;51.312;7.378;2023-07-22T07:35:17;97300.63;;;15.57;100.00
5872;BME280;2962;51.312;7.378;2023-07-22T07:37:42;97291.94;;;15.66;100.00
5872;BME280;2962;51.312;7.378;2023-07-22T07:40:08;97282.09;;;15.72;100.00
5872;BME280;2962;51.312;7.378;2023-07-22T07:42:33;97296.47;;;15.83;100.00
5872;BME280;2962;51.312;7.378;2023-07-22T07:44:59;97301.31;;;15.72;100.00
5872;BME280;2962;51.312;7.378;2023-07-22T07:47:24;97290.75;;;15.67;100.00
5872;BME280;2962;51.312;7.378;2023-07-22T07:49:49;97289.16;;;15.70;100.00
5872;BME280;2962;51.312;7.378;2023-07-22T07:52:15;97302.28;;;15.96;100.00
5872;BME280;2962;51.312;7.378;2023-07-22T07:54:40;97306.53;;;16.01;100.00
5872;BME280;2962;51.312;7.378;2023-07-22T07:57:05;97302.50;;;16.13;100.00
5872;BME280;2962;51.312;7.378;2023-07-22T07:59:31;97310.06;;;16.01;100.00
5872;BME280;2962;51.312;7.378;2023-07-22T08:01:56;97299.56;;;16.30;100.00
5872;BME280;2962;51.312;7.378;2023-07-22T08:04:21;97306.53;;;16.01;100.00
5872;BME280;2962;51.312;7.378;2023-07-22T08:06:48;97301.78;;;16.05;100.00
5872;BME280;2962;51.312;7.378;2023-07-22T08:09:14;97311.53;;;16.13;100.00
5872;BME280;2962;51.312;7.378;2023-07-22T08:11:44;97300.25;;;16.04;100.00
5872;BME280;2962;51.312;7.378;2023-07-22T08:14:09;97297.72;;;16.20;100.00
5872;BME280;2962;51.312;7.378;2023-07-22T08:16:35;97299.22;;;16.25;100.00
5872;BME280;2962;51.312;7.378;2023-07-22T08:19:00;97302.34;;;16.27;100.00
5872;BME280;2962;51.312;7.378;2023-07-22T08:21:25;97305.28;;;16.47;100.00
5872;BME280;2962;51.312;7.378;2023-07-22T08:23:50;97318.81;;;16.65;100.00
5872;BME280;2962;51.312;7.378;2023-07-22T08:26:16;97297.91;;;16.74;100.00
5872;BME280;2962;51.312;7.378;2023-07-22T08:28:45;97299.19;;;16.97;100.00
5872;BME280;2962;51.312;7.378;2023-07-22T08:31:11;97304.91;;;16.79;100.00
5872;BME280;2962;51.312;7.378;2023-07-22T08:33:36;97301.69;;;17.15;100.00
5872;BME280;2962;51.312;7.378;2023-07-22T08:36:02;97304.13;;;17.36;100.00
5872;BME280;2962;51.312;7.378;2023-07-22T08:38:27;97295.41;;;17.41;100.00
5872;BME280;2962;51.312;7.378;2023-07-22T08:40:53;97290.84;;;17.54;100.00
5872;BME280;2962;51.312;7.378;2023-07-22T08:43:22;97306.91;;;17.60;100.00
5872;BME280;2962;51.312;7.378;2023-07-22T08:45:50;97313.94;;;17.64;100.00
5872;BME280;2962;51.312;7.378;2023-07-22T08:48:17;97298.22;;;17.38;100.00
5872;BME280;2962;51.312;7.378;2023-07-22T08:50:52;97303.13;;;17.23;100.00
5872;BME280;2962;51.312;7.378;2023-07-22T08:53:18;97314.00;;;17.33;100.00
5872;BME280;2962;51.312;7.378;2023-07-22T08:55:45;97298.72;;;17.29;100.00
5872;BME280;2962;51.312;7.378;2023-07-22T08:58:11;97315.19;;;17.32;100.00
5872;BME280;2962;51.312;7.378;2023-07-22T09:00:38;97296.81;;;17.26;100.00
5872;BME280;2962;51.312;7.378;2023-07-22T09:03:04;97276.28;;;17.03;100.00
5872;BME280;2962;51.312;7.378;2023-07-22T09:05:31;97297.84;;;17.08;100.00
5872;BME280;2962;51.312;7.378;2023-07-22T09:07:57;97296.63;;;17.09;100.00
5872;BME280;2962;51.312;7.378;2023-07-22T09:10:24;97285.41;;;16.97;100.00
5872;BME280;2962;51.312;7.378;2023-07-22T09:12:51;97290.97;;;17.20;100.00
5872;BME280;2962;51.312;7.378;2023-07-22T09:15:17;97300.16;;;17.37;100.00
5872;BME280;2962;51.312;7.378;2023-07-22T09:17:44;97294.59;;;17.41;100.00
5872;BME280;2962;51.312;7.378;2023-07-22T09:20:12;97303.53;;;17.48;100.00
5872;BME280;2962;51.312;7.378;2023-07-22T09:22:46;97312.63;;;17.96;100.00
5872;BME280;2962;51.312;7.378;2023-07-22T09:25:22;97310.38;;;18.34;100.00
5872;BME280;2962;51.312;7.378;2023-07-22T09:27:55;97301.03;;;18.28;100.00
5872;BME280;2962;51.312;7.378;2023-07-22T09:30:26;97314.03;;;18.47;100.00
5872;BME280;2962;51.312;7.378;2023-07-22T09:32:54;97311.34;;;18.64;100.00
5872;BME280;2962;51.312;7.378;2023-07-22T09:35:21;97311.41;;;18.84;100.00
5872;BME280;2962;51.312;7.378;2023-07-22T09:37:47;97314.31;;;19.13;100.00
5872;BME280;2962;51.312;7.378;2023-07-22T09:40:17;97303.88;;;18.84;100.00
5872;BME280;2962;51.312;7.378;2023-07-22T09:42:48;97330.09;;;18.76;100.00
5872;BME280;2962;51.312;7.378;2023-07-22T09:45:13;97296.78;;;17.80;100.00
5872;BME280;2962;51.312;7.378;2023-07-22T09:47:41;97316.25;;;18.13;100.00
5872;BME280;2962;51.312;7.378;2023-07-22T09:50:06;97304.13;;;17.87;100.00
5872;BME280;2962;51.312;7.378;2023-07-22T09:52:32;97297.84;;;18.29;100.00
5872;BME280;2962;51.312;7.378;2023-07-22T09:54:58;97306.53;;;18.68;100.00
5872;BME280;2962;51.312;7.378;2023-07-22T09:57:24;97313.06;;;18.97;100.00
5872;BME280;2962;51.312;7.378;2023-07-22T09:59:52;97307.81;;;18.83;100.00
5872;BME280;2962;51.312;7.378;2023-07-22T10:02:18;97302.09;;;19.46;100.00
5872;BME280;2962;51.312;7.378;2023-07-22T10:04:45;97312.53;;;19.55;100.00
5872;BME280;2962;51.312;7.378;2023-07-22T10:07:12;97295.69;;;19.33;100.00
5872;BME280;2962;51.312;7.378;2023-07-22T10:09:39;97308.31;;;19.50;100.00
5872;BME280;2962;51.312;7.378;2023-07-22T10:12:05;97307.34;;;19.41;100.00
5872;BME280;2962;51.312;7.378;2023-07-22T10:14:31;97309.09;;;18.98;100.00
5872;BME280;2962;51.312;7.378;2023-07-22T10:16:57;97303.88;;;18.84;100.00
5872;BME280;2962;51.312;7.378;2023-07-22T10:19:24;97306.66;;;18.84;100.00
5872;BME280;2962;51.312;7.378;2023-07-22T10:21:51;97303.13;;;18.84;100.00
5872;BME280;2962;51.312;7.378;2023-07-22T10:24:17;97304.16;;;18.30;100.00
5872;BME280;2962;51.312;7.378;2023-07-22T10:26:43;97312.31;;;18.14;100.00
5872;BME280;2962;51.312;7.378;2023-07-22T10:29:11;97304.28;;;18.23;100.00
5872;BME280;2962;51.312;7.378;2023-07-22T10:31:37;97311.34;;;18.64;100.00
5872;BME280;2962;51.312;7.378;2023-07-22T10:34:03;97300.00;;;18.82;100.00
5872;BME280;2962;51.312;7.378;2023-07-22T10:36:29;97292.06;;;19.20;100.00
5872;BME280;2962;51.312;7.378;2023-07-22T10:38:56;97274.22;;;19.73;100.00
5872;BME280;2962;51.312;7.378;2023-07-22T10:41:22;97300.38;;;20.18;100.00
5872;BME280;2962;51.312;7.378;2023-07-22T10:43:55;97288.06;;;20.19;100.00
5872;BME280;2962;51.312;7.378;2023-07-22T10:46:35;97273.06;;;20.04;100.00
5872;BME280;2962;51.312;7.378;2023-07-22T10:49:15;97292.97;;;19.82;100.00
5872;BME280;2962;51.312;7.378;2023-07-22T10:51:45;97285.59;;;20.37;100.00
5872;BME280;2962;51.312;7.378;2023-07-22T10:54:13;97276.72;;;19.84;100.00
5872;BME280;2962;51.312;7.378;2023-07-22T10:56:42;97282.97;;;20.46;100.00
5872;BME280;2962;51.312;7.378;2023-07-22T10:59:10;97286.31;;;20.96;100.00
5872;BME280;2962;51.312;7.378;2023-07-22T11:01:37;97293.56;;;21.57;100.00
5872;BME280;2962;51.312;7.378;2023-07-22T11:04:12;97299.44;;;21.47;100.00
5872;BME280;2962;51.312;7.378;2023-07-22T11:06:59;97285.03;;;21.26;100.00
5872;BME280;2962;51.312;7.378;2023-07-22T11:12:00;97274.72;;;21.27;100.00
5872;BME280;2962;51.312;7.378;2023-07-22T11:14:30;97278.38;;;21.36;100.00
5872;BME280;2962;51.312;7.378;2023-07-22T11:16:57;97272.94;;;21.20;100.00
5872;BME280;2962;51.312;7.378;2023-07-22T11:19:24;97262.59;;;21.72;100.00
5872;BME280;2962;51.312;7.378;2023-07-22T11:21:51;97265.63;;;21.39;100.00
5872;BME280;2962;51.312;7.378;2023-07-22T11:24:17;97250.41;;;21.69;100.00
5872;BME280;2962;51.312;7.378;2023-07-22T11:26:44;97265.97;;;21.03;100.00
5872;BME280;2962;51.312;7.378;2023-07-22T11:29:10;97263.69;;;20.43;100.00
5872;BME280;2962;51.312;7.378;2023-07-22T11:31:38;97253.22;;;19.92;100.00
5872;BME280;2962;51.312;7.378;2023-07-22T11:34:08;97257.97;;;19.92;100.00
5872;BME280;2962;51.312;7.378;2023-07-22T11:36:33;97260.91;;;20.30;100.00
5872;BME280;2962;51.312;7.378;2023-07-22T11:39:12;97249.41;;;20.86;100.00
5872;BME280;2962;51.312;7.378;2023-07-22T11:41:38;97261.63;;;20.89;100.00
5872;BME280;2962;51.312;7.378;2023-07-22T11:44:06;97249.50;;;20.41;100.00
5872;BME280;2962;51.312;7.378;2023-07-22T11:46:35;97245.34;;;21.04;100.00
5872;BME280;2962;51.312;7.378;2023-07-22T11:49:01;97249.75;;;20.88;100.00
5872;BME280;2962;51.312;7.378;2023-07-22T11:51:27;97254.97;;;20.99;100.00
5872;BME280;2962;51.312;7.378;2023-07-22T11:53:53;97247.75;;;20.76;100.00
5872;BME280;2962;51.312;7.378;2023-07-22T11:56:24;97241.66;;;20.81;97.67
5872;BME280;2962;51.312;7.378;2023-07-22T11:58:51;97262.38;;;21.02;95.88
5872;BME280;2962;51.312;7.378;2023-07-22T12:01:16;97248.53;;;21.28;88.85
5872;BME280;2962;51.312;7.378;2023-07-22T12:03:41;97256.31;;;21.33;93.92
5872;BME280;2962;51.312;7.378;2023-07-22T12:06:07;97252.66;;;21.49;97.63
5872;BME280;2962;51.312;7.378;2023-07-22T12:08:33;97243.22;;;21.93;85.03
5872;BME280;2962;51.312;7.378;2023-07-22T12:10:59;97240.06;;;22.39;84.07
5872;BME280;2962;51.312;7.378;2023-07-22T12:13:25;97245.66;;;23.32;71.00
5872;BME280;2962;51.312;7.378;2023-07-22T12:16:04;97225.22;;;23.08;68.79
5872;BME280;2962;51.312;7.378;2023-07-22T12:18:46;97246.47;;;23.02;72.36
5872;BME280;2962;51.312;7.378;2023-07-22T12:21:11;97223.56;;;23.29;66.69
5872;BME280;2962;51.312;7.378;2023-07-22T12:23:37;97234.06;;;22.62;72.56
5872;BME280;2962;51.312;7.378;2023-07-22T12:26:04;97222.56;;;23.54;65.66
5872;BME280;2962;51.312;7.378;2023-07-22T12:28:29;97220.50;;;23.95;68.01
5872;BME280;2962;51.312;7.378;2023-07-22T12:30:55;97220.69;;;23.51;66.45
5872;BME280;2962;51.312;7.378;2023-07-22T12:33:22;97218.38;;;23.49;69.44
5872;BME280;2962;51.312;7.378;2023-07-22T12:35:49;97201.84;;;22.65;75.39
5872;BME280;2962;51.312;7.378;2023-07-22T12:38:14;97221.19;;;22.78;72.78
5872;BME280;2962;51.312;7.378;2023-07-22T12:40:39;97212.75;;;22.90;73.31
5872;BME280;2962;51.312;7.378;2023-07-22T12:43:05;97202.50;;;22.78;63.93
5872;BME280;2962;51.312;7.378;2023-07-22T12:45:30;97224.59;;;22.82;64.81
5872;BME280;2962;51.312;7.378;2023-07-22T12:47:55;97203.22;;;21.82;70.16
5872;BME280;2962;51.312;7.378;2023-07-22T12:50:20;97207.81;;;21.63;72.42
5872;BME280;2962;51.312;7.378;2023-07-22T12:52:46;97220.44;;;22.55;65.97
5872;BME280;2962;51.312;7.378;2023-07-22T12:55:11;97217.75;;;22.96;62.90
5872;BME280;2962;51.312;7.378;2023-07-22T12:57:36;97199.31;;;22.58;66.77
5872;BME280;2962;51.312;7.378;2023-07-22T13:00:02;97193.13;;;22.54;68.00
5872;BME280;2962;51.312;7.378;2023-07-22T13:02:31;97192.59;;;23.58;62.96
5872;BME280;2962;51.312;7.378;2023-07-22T13:04:56;97196.69;;;25.24;54.68
5872;BME280;2962;51.312;7.378;2023-07-22T13:07:21;97192.84;;;26.92;51.12
5872;BME280;2962;51.312;7.378;2023-07-22T13:09:47;97209.38;;;26.07;50.74